createdAt,value
2019-04-07T00:00:21.030Z,16.90
2019-04-07T00:02:51.959Z,17.13
2019-04-07T00:05:23.027Z,18.17
2019-04-07T00:07:54.117Z,18.13
2019-04-07T00:10:24.969Z,17.67
2019-04-07T00:12:55.697Z,16.00
2019-04-07T00:15:26.079Z,17.40
2019-04-07T00:17:56.448Z,15.50
2019-04-07T00:20:27.089Z,16.80
2019-04-07T00:22:58.229Z,15.97
2019-04-07T00:25:28.765Z,16.50
2019-04-07T00:27:59.711Z,17.93
2019-04-07T00:30:30.337Z,18.20
2019-04-07T00:33:00.866Z,16.17
2019-04-07T00:35:33.270Z,17.77
2019-04-07T00:38:03.710Z,15.60
2019-04-07T00:40:34.901Z,18.67
2019-04-07T00:43:05.662Z,17.53
2019-04-07T00:45:36.013Z,16.63
2019-04-07T00:48:06.909Z,20.00
2019-04-07T00:50:38.223Z,15.77
2019-04-07T00:53:08.889Z,16.77
2019-04-07T00:55:39.711Z,17.43
2019-04-07T00:58:10.013Z,16.37
2019-04-07T01:00:41.638Z,16.53
2019-04-07T01:03:12.267Z,15.40
2019-04-07T01:05:43.581Z,17.33
2019-04-07T01:08:15.442Z,18.00
2019-04-07T01:10:46.265Z,16.33
2019-04-07T01:13:17.204Z,17.73
2019-04-07T01:15:48.430Z,17.80
2019-04-07T01:18:18.861Z,17.77
2019-04-07T01:20:49.594Z,17.50
2019-04-07T01:23:20.314Z,17.35
2019-04-07T01:25:52.268Z,17.90
2019-04-07T01:28:23.645Z,17.63
2019-04-07T01:30:54.274Z,17.87
2019-04-07T01:33:26.311Z,18.43
2019-04-07T01:35:57.230Z,17.90
2019-04-07T01:38:28.008Z,17.93
2019-04-07T01:41:03.141Z,18.80
2019-04-07T01:43:35.535Z,17.93
2019-04-07T01:46:19.562Z,18.60
2019-04-07T01:48:52.094Z,17.47
2019-04-07T01:51:33.375Z,17.73
2019-04-07T01:54:08.646Z,18.00
2019-04-07T01:56:43.751Z,20.00
2019-04-07T01:59:19.919Z,17.90
2019-04-07T02:01:58.295Z,18.30
2019-04-07T02:04:42.779Z,18.40
2019-04-07T02:07:15.126Z,17.80
2019-04-07T02:10:05.909Z,18.30
2019-04-07T02:12:55.752Z,18.17
2019-04-07T02:15:30.385Z,17.13
2019-04-07T02:18:18.691Z,18.10
2019-04-07T02:20:54.172Z,17.70
2019-04-07T02:23:29.499Z,16.90
2019-04-07T02:26:19.561Z,18.13
2019-04-07T02:29:08.018Z,17.00
2019-04-07T02:31:40.424Z,17.60
2019-04-07T02:34:14.010Z,20.77
2019-04-07T02:36:46.666Z,22.42
2019-04-07T02:39:19.522Z,21.68
2019-04-07T02:41:57.315Z,19.92
2019-04-07T02:44:33.546Z,18.52
2019-04-07T02:47:09.850Z,18.67
2019-04-07T02:49:41.931Z,18.40
2019-04-07T02:52:20.012Z,17.37
2019-04-07T02:54:59.166Z,18.27
2019-04-07T02:57:33.977Z,17.93
2019-04-07T03:00:12.157Z,18.07
2019-04-07T03:02:45.563Z,18.35
2019-04-07T03:05:18.323Z,17.85
2019-04-07T03:07:53.251Z,17.07
2019-04-07T03:10:25.551Z,16.67
2019-04-07T03:13:01.106Z,17.40
2019-04-07T03:15:34.330Z,16.87
2019-04-07T03:18:20.194Z,16.27
2019-04-07T03:20:53.858Z,17.92
2019-04-07T03:23:32.130Z,18.17
2019-04-07T03:26:20.575Z,17.32
2019-04-07T03:29:09.740Z,17.20
2019-04-07T03:31:49.243Z,18.27
2019-04-07T03:34:26.733Z,17.87
2019-04-07T03:37:26.048Z,17.62
2019-04-07T03:39:49.822Z,18.00
2019-04-07T03:42:23.139Z,17.30
2019-04-07T03:44:58.733Z,18.30
2019-04-07T03:47:30.762Z,17.62
2019-04-07T03:50:08.972Z,16.37
2019-04-07T03:52:40.937Z,18.15
2019-04-07T03:55:13.701Z,18.17
2019-04-07T03:57:46.351Z,18.27
2019-04-07T04:01:06.683Z,18.85
2019-04-07T04:03:38.847Z,17.67
2019-04-07T04:06:26.863Z,20.52
2019-04-07T04:08:59.241Z,20.30
2019-04-07T04:11:40.625Z,22.15
2019-04-07T04:14:16.374Z,24.07
2019-04-07T04:16:49.095Z,21.95
2019-04-07T04:19:20.880Z,21.80
2019-04-07T04:21:52.601Z,21.15
2019-04-07T04:24:23.302Z,20.62
2019-04-07T04:26:54.038Z,21.55
2019-04-07T04:29:24.922Z,23.60
2019-04-07T04:31:55.761Z,23.50
2019-04-07T04:34:27.165Z,22.95
2019-04-07T04:36:58.149Z,20.20
2019-04-07T04:39:29.427Z,21.10
2019-04-07T04:42:00.024Z,23.87
2019-04-07T04:44:52.309Z,21.55
2019-04-07T04:47:23.483Z,22.98
2019-04-07T04:49:53.820Z,20.68
2019-04-07T04:52:24.240Z,20.30
2019-04-07T04:54:55.327Z,22.27
2019-04-07T04:57:25.965Z,22.22
2019-04-07T04:59:56.484Z,21.52
2019-04-07T05:02:27.642Z,19.57
2019-04-07T05:04:58.049Z,19.75
2019-04-07T05:07:28.921Z,20.43
2019-04-07T05:10:00.049Z,18.85
2019-04-07T05:12:30.380Z,19.00
2019-04-07T05:15:01.713Z,18.67
2019-04-07T05:17:32.373Z,18.65
2019-04-07T05:20:03.703Z,19.07
2019-04-07T05:22:34.387Z,19.60
2019-04-07T05:25:06.991Z,18.85
2019-04-07T05:27:37.370Z,18.77
2019-04-07T05:30:08.383Z,17.02
2019-04-07T05:32:39.940Z,20.35
2019-04-07T05:35:10.375Z,18.42
2019-04-07T05:37:41.708Z,19.87
2019-04-07T05:40:12.473Z,19.10
2019-04-07T05:42:43.354Z,18.98
2019-04-07T05:45:13.876Z,19.75
2019-04-07T05:47:48.217Z,19.82
2019-04-07T05:50:16.669Z,19.80
2019-04-07T05:52:47.704Z,18.77
2019-04-07T05:55:20.601Z,18.80
2019-04-07T05:57:50.111Z,18.77
2019-04-07T06:00:20.744Z,19.25
2019-04-07T06:02:51.647Z,19.77
2019-04-07T06:05:22.888Z,19.17
2019-04-07T06:07:53.636Z,19.43
2019-04-07T06:10:27.717Z,20.40
2019-04-07T06:12:56.583Z,21.27
2019-04-07T06:15:26.958Z,21.60
2019-04-07T06:18:00.574Z,19.40
2019-04-07T06:20:30.379Z,20.27
2019-04-07T06:23:02.033Z,19.70
2019-04-07T06:25:36.973Z,19.93
2019-04-07T06:28:05.414Z,20.30
2019-04-07T06:30:36.896Z,18.67
2019-04-07T06:33:08.874Z,19.83
2019-04-07T06:35:39.454Z,19.97
2019-04-07T06:38:09.872Z,20.57
2019-04-07T06:40:40.584Z,21.00
2019-04-07T06:43:10.948Z,20.20
2019-04-07T06:45:56.348Z,20.87
2019-04-07T06:48:26.817Z,20.60
2019-04-07T06:51:01.842Z,19.60
2019-04-07T06:53:40.336Z,20.93
2019-04-07T06:56:16.394Z,21.63
2019-04-07T06:59:01.544Z,21.93
2019-04-07T07:01:33.961Z,21.30
2019-04-07T07:04:12.608Z,20.40
2019-04-07T07:06:51.528Z,23.23
2019-04-07T07:09:26.420Z,21.50
2019-04-07T07:12:21.284Z,21.23
2019-04-07T07:15:04.556Z,20.87
2019-04-07T07:17:37.666Z,21.27
2019-04-07T07:20:10.249Z,20.40
2019-04-07T07:22:45.661Z,20.07
2019-04-07T07:25:14.777Z,21.17
2019-04-07T07:27:46.069Z,20.70
2019-04-07T07:30:18.328Z,20.07
2019-04-07T07:32:49.740Z,19.70
2019-04-07T07:35:20.298Z,19.60
2019-04-07T07:37:51.115Z,20.13
2019-04-07T07:40:22.176Z,20.00
2019-04-07T07:42:56.156Z,21.43
2019-04-07T07:45:26.130Z,20.33
2019-04-07T07:47:57.722Z,20.40
2019-04-07T07:50:28.486Z,20.63
2019-04-07T07:52:58.818Z,18.97
2019-04-07T07:55:33.857Z,20.53
2019-04-07T07:58:01.298Z,20.93
2019-04-07T08:00:32.064Z,19.50
2019-04-07T08:03:03.665Z,18.60
2019-04-07T08:05:34.679Z,19.17
2019-04-07T08:08:05.772Z,20.17
2019-04-07T08:10:37.466Z,19.33
2019-04-07T08:13:09.029Z,20.20
2019-04-07T08:15:39.414Z,18.73
2019-04-07T08:18:10.192Z,21.17
2019-04-07T08:20:43.607Z,18.23
2019-04-07T08:23:13.608Z,18.77
2019-04-07T08:25:45.547Z,18.40
2019-04-07T08:28:18.824Z,18.90
2019-04-07T08:30:49.104Z,18.30
2019-04-07T08:33:20.200Z,19.00
2019-04-07T08:35:51.231Z,19.07
2019-04-07T08:38:25.903Z,16.60
2019-04-07T08:40:55.433Z,17.97
2019-04-07T08:43:26.496Z,17.20
2019-04-07T08:45:57.844Z,16.73
2019-04-07T08:48:51.768Z,17.40
2019-04-07T08:51:39.418Z,16.53
2019-04-07T08:54:09.939Z,16.20
2019-04-07T08:56:40.622Z,16.20
2019-04-07T08:59:15.557Z,16.43
2019-04-07T09:01:43.502Z,15.90
2019-04-07T09:04:16.502Z,14.40
2019-04-07T09:06:45.991Z,15.50
2019-04-07T09:09:16.946Z,17.07
2019-04-07T09:11:48.036Z,15.13
2019-04-07T09:14:18.927Z,15.70
2019-04-07T09:17:03.599Z,15.07
2019-04-07T09:19:45.731Z,14.40
2019-04-07T09:22:26.619Z,15.03
2019-04-07T09:25:00.759Z,14.93
2019-04-07T09:27:36.264Z,15.47
2019-04-07T09:30:26.142Z,13.77
2019-04-07T09:32:58.809Z,13.17
2019-04-07T09:35:47.614Z,22.10
2019-04-07T09:38:24.980Z,13.07
2019-04-07T09:41:13.162Z,13.43
2019-04-07T09:43:55.214Z,13.83
2019-04-07T09:46:50.034Z,12.80
2019-04-07T09:49:21.246Z,12.00
2019-04-07T09:51:53.021Z,13.90
2019-04-07T09:54:40.944Z,14.80
2019-04-07T09:57:19.040Z,16.07
2019-04-07T09:59:55.200Z,17.57
2019-04-07T10:02:44.853Z,14.47
2019-04-07T10:05:19.529Z,12.80
2019-04-07T10:07:51.827Z,12.00
2019-04-07T10:10:33.235Z,12.37
2019-04-07T10:13:21.827Z,10.30
2019-04-07T10:15:54.276Z,11.60
2019-04-07T10:18:36.850Z,11.50
2019-04-07T10:21:11.873Z,12.90
2019-04-07T10:23:43.886Z,11.13
2019-04-07T10:26:32.596Z,11.60
2019-04-07T10:29:07.454Z,12.53
2019-04-07T10:31:42.942Z,14.00
2019-04-07T10:34:30.865Z,14.67
2019-04-07T10:37:05.541Z,12.37
2019-04-07T10:39:57.957Z,13.87
2019-04-07T10:42:35.889Z,12.17
2019-04-07T10:45:16.331Z,13.23
2019-04-07T10:48:07.000Z,11.80
2019-04-07T10:50:39.436Z,13.43
2019-04-07T10:53:11.489Z,12.37
2019-04-07T10:56:01.093Z,12.80
2019-04-07T10:58:36.854Z,12.33
2019-04-07T11:01:26.700Z,12.30
2019-04-07T11:04:07.979Z,12.10
2019-04-07T11:06:46.156Z,11.97
2019-04-07T11:09:21.182Z,11.87
2019-04-07T11:12:00.046Z,12.43
2019-04-07T11:14:35.078Z,11.83
2019-04-07T11:17:19.443Z,11.90
2019-04-07T11:20:08.086Z,11.20
2019-04-07T11:22:57.511Z,12.43
2019-04-07T11:25:33.600Z,13.53
2019-04-07T11:28:24.214Z,11.90
2019-04-07T11:30:56.480Z,12.80
2019-04-07T11:33:37.247Z,12.50
2019-04-07T11:36:23.477Z,11.60
2019-04-07T11:39:11.941Z,11.93
2019-04-07T11:41:59.503Z,11.03
2019-04-07T11:44:49.862Z,11.77
2019-04-07T11:47:25.304Z,11.17
2019-04-07T11:50:03.850Z,12.57
2019-04-07T11:52:36.515Z,11.07
2019-04-07T11:55:11.887Z,12.73
2019-04-07T11:57:45.292Z,12.23
2019-04-07T12:00:20.908Z,11.70
2019-04-07T12:02:53.620Z,11.63
2019-04-07T12:05:26.811Z,12.87
2019-04-07T12:08:06.144Z,10.87
2019-04-07T12:11:00.607Z,12.57
2019-04-07T12:13:31.384Z,11.57
2019-04-07T12:16:16.734Z,11.10
2019-04-07T12:18:58.958Z,11.70
2019-04-07T12:21:35.434Z,10.80
2019-04-07T12:24:05.987Z,11.70
2019-04-07T12:26:43.870Z,10.40
2019-04-07T12:29:25.414Z,12.67
2019-04-07T12:32:13.033Z,11.40
2019-04-07T12:34:50.941Z,11.43
2019-04-07T12:37:32.954Z,10.63
2019-04-07T12:40:09.309Z,11.67
2019-04-07T12:42:41.765Z,11.03
2019-04-07T12:45:29.978Z,11.97
2019-04-07T12:48:03.224Z,10.37
2019-04-07T12:50:41.521Z,10.63
2019-04-07T12:53:16.197Z,11.17
2019-04-07T12:55:57.575Z,10.13
2019-04-07T12:58:25.521Z,10.27
2019-04-07T13:01:09.993Z,10.30
2019-04-07T13:03:49.261Z,10.53
2019-04-07T13:06:42.226Z,11.10
2019-04-07T13:09:32.387Z,11.35
2019-04-07T13:12:04.282Z,11.03
2019-04-07T13:14:42.792Z,11.37
2019-04-07T13:17:21.446Z,10.33
2019-04-07T13:20:03.994Z,11.57
2019-04-07T13:22:51.832Z,10.40
2019-04-07T13:25:29.194Z,12.07
2019-04-07T13:28:17.098Z,10.03
2019-04-07T13:30:56.262Z,11.13
2019-04-07T13:34:04.500Z,11.50
2019-04-07T13:36:51.061Z,10.03
2019-04-07T13:39:26.015Z,11.80
2019-04-07T13:42:17.381Z,10.60
2019-04-07T13:44:51.410Z,12.40
2019-04-07T13:47:29.470Z,11.90
2019-04-07T13:50:02.617Z,11.83
2019-04-07T13:52:41.942Z,11.60
2019-04-07T13:55:17.353Z,10.77
2019-04-07T13:57:58.127Z,11.93
2019-04-07T14:00:46.366Z,10.67
2019-04-07T14:03:25.490Z,11.63
2019-04-07T14:06:01.195Z,11.30
2019-04-07T14:08:48.172Z,10.63
2019-04-07T14:11:26.055Z,11.17
2019-04-07T14:14:14.725Z,9.87
2019-04-07T14:16:47.587Z,10.43
2019-04-07T14:19:20.017Z,10.17
2019-04-07T14:21:55.679Z,10.40
2019-04-07T14:24:37.214Z,10.43
2019-04-07T14:27:12.199Z,11.30
2019-04-07T14:29:44.949Z,11.30
2019-04-07T14:32:17.350Z,11.83
2019-04-07T14:35:05.369Z,10.23
2019-04-07T14:37:38.282Z,12.17
2019-04-07T14:40:18.367Z,10.00
2019-04-07T14:42:50.768Z,9.80
2019-04-07T14:45:32.057Z,10.07
2019-04-07T14:48:19.081Z,9.93
2019-04-07T14:51:07.641Z,10.23
2019-04-07T14:53:52.975Z,10.23
2019-04-07T14:56:42.154Z,10.20
2019-04-07T14:59:33.015Z,10.13
2019-04-07T15:02:04.256Z,9.83
2019-04-07T15:04:39.987Z,10.67
2019-04-07T15:07:29.975Z,9.40
2019-04-07T15:10:02.373Z,10.13
2019-04-07T15:12:35.952Z,9.83
2019-04-07T15:15:11.223Z,10.40
2019-04-07T15:17:39.375Z,10.80
2019-04-07T15:20:13.641Z,8.77
2019-04-07T15:22:46.047Z,10.20
2019-04-07T15:25:15.221Z,8.23
2019-04-07T15:27:45.714Z,8.70
2019-04-07T15:30:16.898Z,8.93
2019-04-07T15:32:47.297Z,8.87
2019-04-07T15:35:18.015Z,8.67
2019-04-07T15:37:51.557Z,10.07
2019-04-07T15:40:21.502Z,9.03
2019-04-07T15:42:52.604Z,10.37
2019-04-07T15:45:23.495Z,9.23
2019-04-07T15:47:54.126Z,8.87
2019-04-07T15:50:29.253Z,8.27
2019-04-07T15:52:58.421Z,8.60
2019-04-07T15:55:43.173Z,8.10
2019-04-07T15:58:02.020Z,9.13
2019-04-07T16:00:45.354Z,9.50
2019-04-07T16:03:16.983Z,8.50
2019-04-07T16:05:47.386Z,10.13
2019-04-07T16:08:18.120Z,8.23
2019-04-07T16:10:48.874Z,9.63
2019-04-07T16:13:19.196Z,8.80
2019-04-07T16:15:52.820Z,9.37
2019-04-07T16:18:22.152Z,9.73
2019-04-07T16:20:53.043Z,9.70
2019-04-07T16:23:23.775Z,11.30
2019-04-07T16:25:57.812Z,8.83
2019-04-07T16:28:27.383Z,9.00
2019-04-07T16:30:58.582Z,9.23
2019-04-07T16:33:32.552Z,9.30
2019-04-07T16:36:01.573Z,10.40
2019-04-07T16:38:32.041Z,8.43
2019-04-07T16:41:02.673Z,9.60
2019-04-07T16:43:34.916Z,9.13
2019-04-07T16:46:05.665Z,9.50
2019-04-07T16:48:39.851Z,9.63
2019-04-07T16:51:09.237Z,9.83
2019-04-07T16:53:41.794Z,10.73
2019-04-07T16:56:11.852Z,10.37
2019-04-07T16:58:42.219Z,9.60
2019-04-07T17:01:13.170Z,9.43
2019-04-07T17:03:44.306Z,8.03
2019-04-07T17:06:15.871Z,9.63
2019-04-07T17:08:46.691Z,9.37
2019-04-07T17:11:17.295Z,9.03
2019-04-07T17:13:49.156Z,9.30
2019-04-07T17:16:22.912Z,9.87
2019-04-07T17:18:55.412Z,9.77
2019-04-07T17:21:25.505Z,10.87
2019-04-07T17:23:56.890Z,9.30
2019-04-07T17:26:27.581Z,10.03
2019-04-07T17:28:58.573Z,11.30
2019-04-07T17:31:32.194Z,10.00
2019-04-07T17:34:04.952Z,10.63
2019-04-07T17:36:36.433Z,9.77
2019-04-07T17:39:09.926Z,11.07
2019-04-07T17:41:41.577Z,11.00
2019-04-07T17:44:22.007Z,12.27
2019-04-07T17:47:00.095Z,11.50
2019-04-07T17:49:38.760Z,12.70
2019-04-07T17:52:27.158Z,11.63
2019-04-07T17:55:02.987Z,12.03
2019-04-07T17:57:53.234Z,11.63
2019-04-07T18:00:34.243Z,12.07
2019-04-07T18:03:11.949Z,12.90
2019-04-07T18:06:00.499Z,12.47
2019-04-07T18:08:41.741Z,11.33
2019-04-07T18:11:12.973Z,12.60
2019-04-07T18:14:04.090Z,12.33
2019-04-07T18:16:36.355Z,12.57
2019-04-07T18:19:17.461Z,13.40
2019-04-07T18:22:06.175Z,11.20
2019-04-07T18:24:38.958Z,10.47
2019-04-07T18:27:14.181Z,11.80
2019-04-07T18:32:46.125Z,11.77
2019-04-07T18:35:26.447Z,11.70
2019-04-07T18:38:01.014Z,12.10
2019-04-07T18:40:33.685Z,12.37
2019-04-07T18:43:18.706Z,11.90
2019-04-07T18:46:01.127Z,12.67
2019-04-07T18:48:50.324Z,13.07
2019-04-07T18:51:40.510Z,12.40
2019-04-07T18:54:17.865Z,10.33
2019-04-07T18:57:10.455Z,14.30
2019-04-07T18:59:42.531Z,17.00
2019-04-07T19:02:23.242Z,19.50
2019-04-07T19:05:00.215Z,15.77
2019-04-07T19:07:35.864Z,13.33
2019-04-07T19:10:17.632Z,12.67
2019-04-07T19:12:47.700Z,11.30
2019-04-07T19:15:40.052Z,10.83
2019-04-07T19:18:18.273Z,10.47
2019-04-07T19:20:53.561Z,10.73
2019-04-07T19:23:32.675Z,11.80
2019-04-07T19:26:07.639Z,11.07
2019-04-07T19:28:40.303Z,9.73
2019-04-07T19:31:15.532Z,11.53
2019-04-07T19:34:02.324Z,11.00
2019-04-07T19:36:48.107Z,14.97
2019-04-07T19:39:33.170Z,21.27
2019-04-07T19:42:11.191Z,22.50
2019-04-07T19:44:46.179Z,14.40
2019-04-07T19:47:20.702Z,12.90
2019-04-07T19:50:11.118Z,12.37
2019-04-07T19:52:59.512Z,10.70
2019-04-07T19:55:41.053Z,10.53
2019-04-07T19:58:15.883Z,10.93
2019-04-07T20:00:58.940Z,12.77
2019-04-07T20:03:31.899Z,11.13
2019-04-07T20:06:04.860Z,11.60
2019-04-07T20:08:43.711Z,12.63
2019-04-07T20:11:27.374Z,12.40
2019-04-07T20:13:58.696Z,13.33
2019-04-07T20:16:36.486Z,12.93
2019-04-07T20:19:27.205Z,13.57
2019-04-07T20:22:04.786Z,14.50
2019-04-07T20:24:42.685Z,12.83
2019-04-07T20:27:15.366Z,12.80
2019-04-07T20:29:54.024Z,12.57
2019-04-07T20:32:34.712Z,14.03
2019-04-07T20:35:14.605Z,13.50
2019-04-07T20:37:59.004Z,13.07
2019-04-07T20:40:36.231Z,12.93
2019-04-07T20:43:23.886Z,14.10
2019-04-07T20:46:00.377Z,12.77
2019-04-07T20:48:49.663Z,13.77
2019-04-07T20:51:33.997Z,12.67
2019-04-07T20:54:23.711Z,13.33
2019-04-07T20:57:16.289Z,12.77
2019-04-07T20:59:51.374Z,12.40
2019-04-07T21:02:29.658Z,12.60
2019-04-07T21:05:22.396Z,12.50
2019-04-07T21:08:12.443Z,13.50
2019-04-07T21:10:50.388Z,11.80
2019-04-07T21:13:28.948Z,11.77
2019-04-07T21:16:03.783Z,12.30
2019-04-07T21:18:44.961Z,12.80
2019-04-07T21:21:29.203Z,12.30
2019-04-07T21:24:01.587Z,12.70
2019-04-07T21:26:45.910Z,13.67
2019-04-07T21:29:19.562Z,13.43
2019-04-07T21:31:52.775Z,13.03
2019-04-07T21:34:34.191Z,13.30
2019-04-07T21:37:12.500Z,12.93
2019-04-07T21:39:42.691Z,11.90
2019-04-07T21:42:27.478Z,13.43
2019-04-07T21:45:02.367Z,12.50
2019-04-07T21:47:36.585Z,13.00
2019-04-07T21:50:10.408Z,13.70
2019-04-07T21:53:01.340Z,13.00
2019-04-07T21:55:34.559Z,13.40
2019-04-07T21:58:07.201Z,13.60
2019-04-07T22:00:51.636Z,11.83
2019-04-07T22:03:40.230Z,12.23
2019-04-07T22:06:18.269Z,13.23
2019-04-07T22:08:53.970Z,13.43
2019-04-07T22:11:27.703Z,12.60
2019-04-07T22:13:57.518Z,13.90
2019-04-07T22:16:31.391Z,16.20
2019-04-07T22:19:00.235Z,13.60
2019-04-07T22:21:30.641Z,14.00
2019-04-07T22:24:01.896Z,14.43
2019-04-07T22:26:33.623Z,12.83
2019-04-07T22:29:05.430Z,12.70
2019-04-07T22:31:47.581Z,13.90
2019-04-07T22:34:18.682Z,12.80
2019-04-07T22:36:49.683Z,13.20
2019-04-07T22:39:20.635Z,13.10
2019-04-07T22:41:51.001Z,13.83
2019-04-07T22:44:22.241Z,13.87
2019-04-07T22:46:54.410Z,13.13
2019-04-07T22:49:28.549Z,13.67
2019-04-07T22:51:57.684Z,13.37
2019-04-07T22:54:30.787Z,13.53
2019-04-07T22:57:00.933Z,13.47
2019-04-07T22:59:32.219Z,13.73
2019-04-07T23:02:03.612Z,12.73
2019-04-07T23:04:34.333Z,13.37
2019-04-07T23:07:06.095Z,14.00
2019-04-07T23:09:37.001Z,13.80
2019-04-07T23:12:08.486Z,13.60
2019-04-07T23:14:38.918Z,14.63
2019-04-07T23:17:09.962Z,14.50
2019-04-07T23:19:40.413Z,14.27
2019-04-07T23:22:11.772Z,14.70
2019-04-07T23:24:43.185Z,14.93
2019-04-07T23:27:14.541Z,13.77
2019-04-07T23:29:45.297Z,13.63
2019-04-07T23:32:15.891Z,14.23
2019-04-07T23:34:46.218Z,15.47
2019-04-07T23:37:16.931Z,15.93
2019-04-07T23:39:47.832Z,14.13
2019-04-07T23:42:18.206Z,15.70
2019-04-07T23:44:48.568Z,14.87
2019-04-07T23:47:19.506Z,14.53
2019-04-07T23:49:50.202Z,14.93
2019-04-07T23:52:20.629Z,16.90
2019-04-07T23:54:51.070Z,15.63
2019-04-07T23:57:21.946Z,16.47
2019-04-07T23:59:52.751Z,17.50
